sensor_id;sensor_type;location;lat;lon;timestamp;P1;durP1;ratioP1;P2;durP2;ratioP2
30635;SDS011;17400;52.392;9.750;2022-09-29T00:00:46;4.90;;;3.25;;
30635;SDS011;17400;52.392;9.750;2022-09-29T00:03:16;6.30;;;4.10;;
30635;SDS011;17400;52.392;9.750;2022-09-29T00:05:48;5.68;;;3.70;;
30635;SDS011;17400;52.392;9.750;2022-09-29T00:08:17;8.02;;;3.75;;
30635;SDS011;17400;52.392;9.750;2022-09-29T00:10:46;5.10;;;3.47;;
30635;SDS011;17400;52.392;9.750;2022-09-29T00:13:14;7.53;;;3.65;;
30635;SDS011;17400;52.392;9.750;2022-09-29T00:15:53;6.93;;;4.03;;
30635;SDS011;17400;52.392;9.750;2022-09-29T00:18:24;4.93;;;3.25;;
30635;SDS011;17400;52.392;9.750;2022-09-29T00:20:55;4.78;;;3.17;;
30635;SDS011;17400;52.392;9.750;2022-09-29T00:23:24;5.82;;;3.47;;
30635;SDS011;17400;52.392;9.750;2022-09-29T00:25:58;5.22;;;3.83;;
30635;SDS011;17400;52.392;9.750;2022-09-29T00:28:28;6.72;;;3.78;;
30635;SDS011;17400;52.392;9.750;2022-09-29T00:30:57;5.40;;;3.47;;
30635;SDS011;17400;52.392;9.750;2022-09-29T00:33:28;5.70;;;3.63;;
30635;SDS011;17400;52.392;9.750;2022-09-29T00:36:00;6.32;;;3.40;;
30635;SDS011;17400;52.392;9.750;2022-09-29T00:38:30;11.85;;;3.97;;
30635;SDS011;17400;52.392;9.750;2022-09-29T00:40:59;6.22;;;3.33;;
30635;SDS011;17400;52.392;9.750;2022-09-29T00:43:47;4.60;;;2.85;;
30635;SDS011;17400;52.392;9.750;2022-09-29T00:46:19;10.52;;;3.58;;
30635;SDS011;17400;52.392;9.750;2022-09-29T00:48:54;5.90;;;3.58;;
30635;SDS011;17400;52.392;9.750;2022-09-29T00:51:27;6.45;;;3.65;;
30635;SDS011;17400;52.392;9.750;2022-09-29T00:53:58;6.45;;;3.95;;
30635;SDS011;17400;52.392;9.750;2022-09-29T00:56:27;5.82;;;3.25;;
30635;SDS011;17400;52.392;9.750;2022-09-29T00:58:57;10.00;;;3.92;;
30635;SDS011;17400;52.392;9.750;2022-09-29T01:01:29;5.20;;;3.47;;
30635;SDS011;17400;52.392;9.750;2022-09-29T01:04:00;5.45;;;3.55;;
30635;SDS011;17400;52.392;9.750;2022-09-29T01:06:31;6.80;;;4.25;;
30635;SDS011;17400;52.392;9.750;2022-09-29T01:09:04;6.10;;;3.22;;
30635;SDS011;17400;52.392;9.750;2022-09-29T01:11:34;5.80;;;3.40;;
30635;SDS011;17400;52.392;9.750;2022-09-29T01:14:02;5.57;;;3.13;;
30635;SDS011;17400;52.392;9.750;2022-09-29T01:16:33;7.65;;;4.07;;
30635;SDS011;17400;52.392;9.750;2022-09-29T01:19:05;5.45;;;3.75;;
30635;SDS011;17400;52.392;9.750;2022-09-29T01:21:36;7.20;;;3.65;;
30635;SDS011;17400;52.392;9.750;2022-09-29T01:24:34;4.53;;;3.45;;
30635;SDS011;17400;52.392;9.750;2022-09-29T01:30:40;5.40;;;3.40;;
30635;SDS011;17400;52.392;9.750;2022-09-29T01:33:16;7.75;;;4.18;;
30635;SDS011;17400;52.392;9.750;2022-09-29T01:35:56;6.32;;;4.00;;
30635;SDS011;17400;52.392;9.750;2022-09-29T01:38:40;6.40;;;3.20;;
30635;SDS011;17400;52.392;9.750;2022-09-29T01:41:20;6.78;;;3.42;;
30635;SDS011;17400;52.392;9.750;2022-09-29T01:43:54;6.78;;;3.90;;
30635;SDS011;17400;52.392;9.750;2022-09-29T01:46:32;5.95;;;3.40;;
30635;SDS011;17400;52.392;9.750;2022-09-29T01:49:04;5.43;;;3.22;;
30635;SDS011;17400;52.392;9.750;2022-09-29T01:51:35;8.07;;;3.92;;
30635;SDS011;17400;52.392;9.750;2022-09-29T01:54:08;5.47;;;4.10;;
30635;SDS011;17400;52.392;9.750;2022-09-29T01:56:42;5.90;;;2.72;;
30635;SDS011;17400;52.392;9.750;2022-09-29T01:59:16;5.40;;;2.88;;
30635;SDS011;17400;52.392;9.750;2022-09-29T02:01:49;6.32;;;3.75;;
30635;SDS011;17400;52.392;9.750;2022-09-29T02:04:27;6.45;;;3.97;;
30635;SDS011;17400;52.392;9.750;2022-09-29T02:06:59;5.10;;;3.20;;
30635;SDS011;17400;52.392;9.750;2022-09-29T02:09:32;6.38;;;3.53;;
30635;SDS011;17400;52.392;9.750;2022-09-29T02:12:02;6.57;;;3.90;;
30635;SDS011;17400;52.392;9.750;2022-09-29T02:14:35;5.15;;;2.90;;
30635;SDS011;17400;52.392;9.750;2022-09-29T02:17:09;5.78;;;3.55;;
30635;SDS011;17400;52.392;9.750;2022-09-29T02:19:44;5.50;;;3.20;;
30635;SDS011;17400;52.392;9.750;2022-09-29T02:22:14;5.75;;;3.53;;
30635;SDS011;17400;52.392;9.750;2022-09-29T02:24:42;6.93;;;3.75;;
30635;SDS011;17400;52.392;9.750;2022-09-29T02:27:10;7.88;;;4.43;;
30635;SDS011;17400;52.392;9.750;2022-09-29T02:29:38;5.70;;;3.67;;
30635;SDS011;17400;52.392;9.750;2022-09-29T02:32:08;8.02;;;4.47;;
30635;SDS011;17400;52.392;9.750;2022-09-29T02:34:38;7.28;;;4.10;;
30635;SDS011;17400;52.392;9.750;2022-09-29T02:37:21;8.23;;;3.80;;
30635;SDS011;17400;52.392;9.750;2022-09-29T02:40:02;9.38;;;4.30;;
30635;SDS011;17400;52.392;9.750;2022-09-29T02:42:43;7.63;;;4.47;;
30635;SDS011;17400;52.392;9.750;2022-09-29T02:45:21;8.80;;;4.40;;
30635;SDS011;17400;52.392;9.750;2022-09-29T02:48:04;7.72;;;4.30;;
30635;SDS011;17400;52.392;9.750;2022-09-29T02:50:47;7.18;;;3.75;;
30635;SDS011;17400;52.392;9.750;2022-09-29T02:53:24;7.32;;;3.85;;
30635;SDS011;17400;52.392;9.750;2022-09-29T02:56:06;6.90;;;4.25;;
30635;SDS011;17400;52.392;9.750;2022-09-29T02:58:38;5.93;;;3.97;;
30635;SDS011;17400;52.392;9.750;2022-09-29T03:01:14;7.38;;;4.47;;
30635;SDS011;17400;52.392;9.750;2022-09-29T03:03:43;9.48;;;4.43;;
30635;SDS011;17400;52.392;9.750;2022-09-29T03:06:11;8.77;;;4.95;;
30635;SDS011;17400;52.392;9.750;2022-09-29T03:08:40;10.23;;;5.63;;
30635;SDS011;17400;52.392;9.750;2022-09-29T03:11:07;8.25;;;4.78;;
30635;SDS011;17400;52.392;9.750;2022-09-29T03:13:35;9.75;;;5.07;;
30635;SDS011;17400;52.392;9.750;2022-09-29T03:16:03;8.60;;;5.00;;
30635;SDS011;17400;52.392;9.750;2022-09-29T03:18:30;9.05;;;5.15;;
30635;SDS011;17400;52.392;9.750;2022-09-29T03:20:59;8.25;;;4.85;;
30635;SDS011;17400;52.392;9.750;2022-09-29T03:23:27;10.40;;;4.97;;
30635;SDS011;17400;52.392;9.750;2022-09-29T03:25:55;11.15;;;5.50;;
30635;SDS011;17400;52.392;9.750;2022-09-29T03:28:23;8.80;;;5.55;;
30635;SDS011;17400;52.392;9.750;2022-09-29T03:30:50;11.93;;;5.50;;
30635;SDS011;17400;52.392;9.750;2022-09-29T03:33:20;10.73;;;5.13;;
30635;SDS011;17400;52.392;9.750;2022-09-29T03:35:48;9.93;;;5.78;;
30635;SDS011;17400;52.392;9.750;2022-09-29T03:38:17;12.30;;;7.00;;
30635;SDS011;17400;52.392;9.750;2022-09-29T03:40:44;12.65;;;7.35;;
30635;SDS011;17400;52.392;9.750;2022-09-29T03:43:12;10.98;;;6.22;;
30635;SDS011;17400;52.392;9.750;2022-09-29T03:45:46;14.90;;;6.88;;
30635;SDS011;17400;52.392;9.750;2022-09-29T03:48:14;13.43;;;7.28;;
30635;SDS011;17400;52.392;9.750;2022-09-29T03:50:47;14.02;;;6.53;;
30635;SDS011;17400;52.392;9.750;2022-09-29T03:53:18;10.52;;;6.03;;
30635;SDS011;17400;52.392;9.750;2022-09-29T03:55:47;9.00;;;5.63;;
30635;SDS011;17400;52.392;9.750;2022-09-29T03:58:16;9.93;;;5.35;;
30635;SDS011;17400;52.392;9.750;2022-09-29T04:00:46;11.93;;;6.13;;
30635;SDS011;17400;52.392;9.750;2022-09-29T04:03:15;13.50;;;6.22;;
30635;SDS011;17400;52.392;9.750;2022-09-29T04:05:44;11.82;;;6.13;;
30635;SDS011;17400;52.392;9.750;2022-09-29T04:08:12;10.52;;;6.68;;
30635;SDS011;17400;52.392;9.750;2022-09-29T04:10:42;10.70;;;5.93;;
30635;SDS011;17400;52.392;9.750;2022-09-29T04:13:14;10.68;;;6.57;;
30635;SDS011;17400;52.392;9.750;2022-09-29T04:15:45;11.35;;;5.72;;
30635;SDS011;17400;52.392;9.750;2022-09-29T04:18:13;12.43;;;6.80;;
30635;SDS011;17400;52.392;9.750;2022-09-29T04:20:41;11.27;;;7.47;;
30635;SDS011;17400;52.392;9.750;2022-09-29T04:23:09;14.68;;;7.38;;
30635;SDS011;17400;52.392;9.750;2022-09-29T04:25:38;11.43;;;6.97;;
30635;SDS011;17400;52.392;9.750;2022-09-29T04:28:07;14.52;;;7.20;;
30635;SDS011;17400;52.392;9.750;2022-09-29T04:30:34;17.08;;;8.30;;
30635;SDS011;17400;52.392;9.750;2022-09-29T04:33:02;17.70;;;7.85;;
30635;SDS011;17400;52.392;9.750;2022-09-29T04:35:30;13.80;;;7.25;;
30635;SDS011;17400;52.392;9.750;2022-09-29T04:38:02;17.13;;;8.27;;
30635;SDS011;17400;52.392;9.750;2022-09-29T04:40:30;12.25;;;7.60;;
30635;SDS011;17400;52.392;9.750;2022-09-29T04:42:58;18.63;;;8.88;;
30635;SDS011;17400;52.392;9.750;2022-09-29T04:45:27;16.98;;;8.93;;
30635;SDS011;17400;52.392;9.750;2022-09-29T04:47:55;16.30;;;8.55;;
30635;SDS011;17400;52.392;9.750;2022-09-29T04:50:23;14.15;;;7.45;;
30635;SDS011;17400;52.392;9.750;2022-09-29T04:52:51;15.40;;;6.82;;
30635;SDS011;17400;52.392;9.750;2022-09-29T04:55:19;12.65;;;8.10;;
30635;SDS011;17400;52.392;9.750;2022-09-29T04:57:47;14.63;;;7.28;;
30635;SDS011;17400;52.392;9.750;2022-09-29T05:00:14;16.20;;;7.88;;
30635;SDS011;17400;52.392;9.750;2022-09-29T05:02:44;13.82;;;7.10;;
30635;SDS011;17400;52.392;9.750;2022-09-29T05:05:15;16.38;;;8.65;;
30635;SDS011;17400;52.392;9.750;2022-09-29T05:07:43;17.23;;;8.50;;
30635;SDS011;17400;52.392;9.750;2022-09-29T05:10:11;15.95;;;7.40;;
30635;SDS011;17400;52.392;9.750;2022-09-29T05:12:38;14.90;;;8.43;;
30635;SDS011;17400;52.392;9.750;2022-09-29T05:15:07;15.85;;;8.75;;
30635;SDS011;17400;52.392;9.750;2022-09-29T05:17:54;15.32;;;9.00;;
30635;SDS011;17400;52.392;9.750;2022-09-29T05:20:22;15.73;;;8.40;;
30635;SDS011;17400;52.392;9.750;2022-09-29T05:22:50;20.80;;;8.63;;
30635;SDS011;17400;52.392;9.750;2022-09-29T05:25:18;15.95;;;8.57;;
30635;SDS011;17400;52.392;9.750;2022-09-29T05:27:45;17.58;;;9.30;;
30635;SDS011;17400;52.392;9.750;2022-09-29T05:30:13;14.40;;;7.32;;
30635;SDS011;17400;52.392;9.750;2022-09-29T05:32:41;17.08;;;8.75;;
30635;SDS011;17400;52.392;9.750;2022-09-29T05:35:11;17.23;;;8.48;;
30635;SDS011;17400;52.392;9.750;2022-09-29T05:37:39;17.48;;;9.27;;
30635;SDS011;17400;52.392;9.750;2022-09-29T05:40:07;17.02;;;9.15;;
30635;SDS011;17400;52.392;9.750;2022-09-29T05:42:35;18.05;;;9.38;;
30635;SDS011;17400;52.392;9.750;2022-09-29T05:45:03;17.02;;;9.40;;
30635;SDS011;17400;52.392;9.750;2022-09-29T05:47:35;22.48;;;11.35;;
30635;SDS011;17400;52.392;9.750;2022-09-29T05:50:03;16.88;;;9.00;;
30635;SDS011;17400;52.392;9.750;2022-09-29T05:52:32;18.70;;;9.35;;
30635;SDS011;17400;52.392;9.750;2022-09-29T05:55:00;16.27;;;8.50;;
30635;SDS011;17400;52.392;9.750;2022-09-29T05:57:28;20.73;;;10.32;;
30635;SDS011;17400;52.392;9.750;2022-09-29T05:59:56;19.10;;;10.48;;
30635;SDS011;17400;52.392;9.750;2022-09-29T06:02:24;19.38;;;10.13;;
30635;SDS011;17400;52.392;9.750;2022-09-29T06:04:52;16.13;;;9.10;;
30635;SDS011;17400;52.392;9.750;2022-09-29T06:07:19;17.42;;;9.38;;
30635;SDS011;17400;52.392;9.750;2022-09-29T06:09:49;21.35;;;9.27;;
30635;SDS011;17400;52.392;9.750;2022-09-29T06:12:17;17.75;;;8.95;;
30635;SDS011;17400;52.392;9.750;2022-09-29T06:14:47;17.92;;;9.55;;
30635;SDS011;17400;52.392;9.750;2022-09-29T06:17:15;15.05;;;8.95;;
30635;SDS011;17400;52.392;9.750;2022-09-29T06:19:45;19.02;;;10.30;;
30635;SDS011;17400;52.392;9.750;2022-09-29T06:22:12;20.77;;;10.88;;
30635;SDS011;17400;52.392;9.750;2022-09-29T06:24:40;17.20;;;9.18;;
30635;SDS011;17400;52.392;9.750;2022-09-29T06:27:09;21.08;;;9.65;;
30635;SDS011;17400;52.392;9.750;2022-09-29T06:29:37;19.05;;;9.32;;
30635;SDS011;17400;52.392;9.750;2022-09-29T06:32:05;22.30;;;9.88;;
30635;SDS011;17400;52.392;9.750;2022-09-29T06:34:32;19.70;;;10.60;;
30635;SDS011;17400;52.392;9.750;2022-09-29T06:37:00;19.85;;;9.73;;
30635;SDS011;17400;52.392;9.750;2022-09-29T06:39:46;16.23;;;10.05;;
30635;SDS011;17400;52.392;9.750;2022-09-29T06:42:15;18.95;;;9.82;;
30635;SDS011;17400;52.392;9.750;2022-09-29T06:44:43;17.63;;;8.93;;
30635;SDS011;17400;52.392;9.750;2022-09-29T06:47:11;21.88;;;11.73;;
30635;SDS011;17400;52.392;9.750;2022-09-29T06:49:39;18.27;;;10.45;;
30635;SDS011;17400;52.392;9.750;2022-09-29T06:52:17;19.45;;;10.55;;
30635;SDS011;17400;52.392;9.750;2022-09-29T06:54:47;19.10;;;10.07;;
30635;SDS011;17400;52.392;9.750;2022-09-29T06:57:16;17.08;;;8.13;;
30635;SDS011;17400;52.392;9.750;2022-09-29T06:59:44;19.45;;;9.25;;
30635;SDS011;17400;52.392;9.750;2022-09-29T07:02:11;22.42;;;11.88;;
30635;SDS011;17400;52.392;9.750;2022-09-29T07:04:40;23.85;;;12.77;;
30635;SDS011;17400;52.392;9.750;2022-09-29T07:07:07;19.17;;;10.38;;
30635;SDS011;17400;52.392;9.750;2022-09-29T07:09:35;21.75;;;9.10;;
30635;SDS011;17400;52.392;9.750;2022-09-29T07:12:03;20.30;;;10.55;;
30635;SDS011;17400;52.392;9.750;2022-09-29T07:14:33;19.90;;;10.95;;
30635;SDS011;17400;52.392;9.750;2022-09-29T07:17:01;21.15;;;10.48;;
30635;SDS011;17400;52.392;9.750;2022-09-29T07:19:29;20.02;;;10.90;;
30635;SDS011;17400;52.392;9.750;2022-09-29T07:21:57;18.00;;;10.40;;
30635;SDS011;17400;52.392;9.750;2022-09-29T07:24:25;17.02;;;8.63;;
30635;SDS011;17400;52.392;9.750;2022-09-29T07:26:53;20.02;;;10.57;;
30635;SDS011;17400;52.392;9.750;2022-09-29T07:29:21;21.45;;;10.73;;
30635;SDS011;17400;52.392;9.750;2022-09-29T07:31:50;15.63;;;8.50;;
30635;SDS011;17400;52.392;9.750;2022-09-29T07:34:20;16.98;;;9.82;;
30635;SDS011;17400;52.392;9.750;2022-09-29T07:36:48;19.73;;;11.27;;
30635;SDS011;17400;52.392;9.750;2022-09-29T07:39:16;19.92;;;11.48;;
30635;SDS011;17400;52.392;9.750;2022-09-29T07:41:46;19.77;;;9.23;;
30635;SDS011;17400;52.392;9.750;2022-09-29T07:44:14;17.17;;;9.15;;
30635;SDS011;17400;52.392;9.750;2022-09-29T07:46:42;16.70;;;8.52;;
30635;SDS011;17400;52.392;9.750;2022-09-29T07:49:11;22.40;;;11.77;;
30635;SDS011;17400;52.392;9.750;2022-09-29T07:51:38;19.02;;;9.82;;
30635;SDS011;17400;52.392;9.750;2022-09-29T07:54:06;23.38;;;12.30;;
30635;SDS011;17400;52.392;9.750;2022-09-29T07:56:34;20.35;;;10.40;;
30635;SDS011;17400;52.392;9.750;2022-09-29T07:59:02;22.85;;;10.68;;
30635;SDS011;17400;52.392;9.750;2022-09-29T08:01:31;20.38;;;10.57;;
30635;SDS011;17400;52.392;9.750;2022-09-29T08:03:59;21.10;;;9.93;;
30635;SDS011;17400;52.392;9.750;2022-09-29T08:06:29;24.83;;;10.43;;
30635;SDS011;17400;52.392;9.750;2022-09-29T08:08:58;21.50;;;10.75;;
30635;SDS011;17400;52.392;9.750;2022-09-29T08:11:30;17.05;;;9.95;;
30635;SDS011;17400;52.392;9.750;2022-09-29T08:13:59;20.42;;;11.32;;
30635;SDS011;17400;52.392;9.750;2022-09-29T08:16:27;19.05;;;10.05;;
30635;SDS011;17400;52.392;9.750;2022-09-29T08:18:55;19.25;;;9.32;;
30635;SDS011;17400;52.392;9.750;2022-09-29T08:21:24;22.00;;;10.68;;
30635;SDS011;17400;52.392;9.750;2022-09-29T08:23:53;18.70;;;9.82;;
30635;SDS011;17400;52.392;9.750;2022-09-29T08:26:21;19.05;;;10.23;;
30635;SDS011;17400;52.392;9.750;2022-09-29T08:29:07;20.45;;;9.63;;
30635;SDS011;17400;52.392;9.750;2022-09-29T08:31:41;18.13;;;9.00;;
30635;SDS011;17400;52.392;9.750;2022-09-29T08:34:09;19.80;;;10.50;;
30635;SDS011;17400;52.392;9.750;2022-09-29T08:36:39;18.15;;;10.13;;
30635;SDS011;17400;52.392;9.750;2022-09-29T08:39:09;19.90;;;9.82;;
30635;SDS011;17400;52.392;9.750;2022-09-29T08:44:28;17.17;;;8.18;;
30635;SDS011;17400;52.392;9.750;2022-09-29T08:47:07;22.70;;;10.93;;
30635;SDS011;17400;52.392;9.750;2022-09-29T08:49:45;12.15;;;6.45;;
30635;SDS011;17400;52.392;9.750;2022-09-29T08:52:15;11.50;;;6.57;;
30635;SDS011;17400;52.392;9.750;2022-09-29T08:54:48;13.63;;;7.88;;
30635;SDS011;17400;52.392;9.750;2022-09-29T08:57:19;16.25;;;8.40;;
30635;SDS011;17400;52.392;9.750;2022-09-29T08:59:49;17.20;;;8.88;;
30635;SDS011;17400;52.392;9.750;2022-09-29T09:02:31;19.15;;;8.93;;
30635;SDS011;17400;52.392;9.750;2022-09-29T09:05:23;15.70;;;8.07;;
30635;SDS011;17400;52.392;9.750;2022-09-29T09:08:01;15.48;;;7.40;;
30635;SDS011;17400;52.392;9.750;2022-09-29T09:10:38;15.90;;;7.93;;
30635;SDS011;17400;52.392;9.750;2022-09-29T09:13:16;10.32;;;6.35;;
30635;SDS011;17400;52.392;9.750;2022-09-29T09:15:53;14.95;;;8.68;;
30635;SDS011;17400;52.392;9.750;2022-09-29T09:18:37;13.45;;;7.65;;
30635;SDS011;17400;52.392;9.750;2022-09-29T09:21:13;17.45;;;8.27;;
30635;SDS011;17400;52.392;9.750;2022-09-29T09:23:48;14.18;;;7.75;;
30635;SDS011;17400;52.392;9.750;2022-09-29T09:26:29;12.77;;;7.22;;
30635;SDS011;17400;52.392;9.750;2022-09-29T09:29:02;13.52;;;6.43;;
30635;SDS011;17400;52.392;9.750;2022-09-29T09:31:32;11.18;;;6.32;;
30635;SDS011;17400;52.392;9.750;2022-09-29T09:34:06;12.20;;;6.18;;
30635;SDS011;17400;52.392;9.750;2022-09-29T09:36:42;12.13;;;5.50;;
30635;SDS011;17400;52.392;9.750;2022-09-29T09:39:28;9.07;;;5.35;;
30635;SDS011;17400;52.392;9.750;2022-09-29T09:42:05;12.68;;;6.43;;
30635;SDS011;17400;52.392;9.750;2022-09-29T09:44:39;12.25;;;6.10;;
30635;SDS011;17400;52.392;9.750;2022-09-29T09:47:22;11.30;;;5.57;;
30635;SDS011;17400;52.392;9.750;2022-09-29T09:49:53;11.25;;;6.75;;
30635;SDS011;17400;52.392;9.750;2022-09-29T09:52:26;12.35;;;6.32;;
30635;SDS011;17400;52.392;9.750;2022-09-29T09:55:01;10.25;;;5.85;;
30635;SDS011;17400;52.392;9.750;2022-09-29T09:57:40;9.98;;;5.45;;
30635;SDS011;17400;52.392;9.750;2022-09-29T10:00:18;12.48;;;5.55;;
30635;SDS011;17400;52.392;9.750;2022-09-29T10:02:49;10.20;;;5.43;;
30635;SDS011;17400;52.392;9.750;2022-09-29T10:05:22;12.23;;;6.35;;
30635;SDS011;17400;52.392;9.750;2022-09-29T10:08:03;14.38;;;5.78;;
30635;SDS011;17400;52.392;9.750;2022-09-29T10:10:35;8.75;;;4.93;;
30635;SDS011;17400;52.392;9.750;2022-09-29T10:13:24;10.82;;;5.05;;
30635;SDS011;17400;52.392;9.750;2022-09-29T10:15:55;12.32;;;5.95;;
30635;SDS011;17400;52.392;9.750;2022-09-29T10:18:25;9.52;;;5.10;;
30635;SDS011;17400;52.392;9.750;2022-09-29T10:20:57;8.38;;;4.38;;
30635;SDS011;17400;52.392;9.750;2022-09-29T10:23:26;11.02;;;4.60;;
30635;SDS011;17400;52.392;9.750;2022-09-29T10:25:57;10.27;;;4.35;;
30635;SDS011;17400;52.392;9.750;2022-09-29T10:28:35;10.70;;;5.13;;
30635;SDS011;17400;52.392;9.750;2022-09-29T10:31:23;9.88;;;4.78;;
30635;SDS011;17400;52.392;9.750;2022-09-29T10:33:54;8.95;;;4.57;;
30635;SDS011;17400;52.392;9.750;2022-09-29T10:36:25;9.27;;;3.80;;
30635;SDS011;17400;52.392;9.750;2022-09-29T10:38:55;7.47;;;3.85;;
30635;SDS011;17400;52.392;9.750;2022-09-29T10:41:28;6.68;;;3.92;;
30635;SDS011;17400;52.392;9.750;2022-09-29T10:43:58;7.45;;;4.22;;
30635;SDS011;17400;52.392;9.750;2022-09-29T10:46:47;10.38;;;3.70;;
30635;SDS011;17400;52.392;9.750;2022-09-29T10:49:19;9.45;;;4.50;;
30635;SDS011;17400;52.392;9.750;2022-09-29T10:51:52;12.05;;;4.90;;
30635;SDS011;17400;52.392;9.750;2022-09-29T10:54:23;8.32;;;4.90;;
30635;SDS011;17400;52.392;9.750;2022-09-29T10:56:53;8.65;;;5.43;;
30635;SDS011;17400;52.392;9.750;2022-09-29T10:59:23;9.88;;;5.78;;
30635;SDS011;17400;52.392;9.750;2022-09-29T11:01:53;10.65;;;5.40;;
30635;SDS011;17400;52.392;9.750;2022-09-29T11:04:24;7.10;;;4.72;;
30635;SDS011;17400;52.392;9.750;2022-09-29T11:06:55;8.50;;;4.82;;
30635;SDS011;17400;52.392;9.750;2022-09-29T11:09:39;5.63;;;3.63;;
30635;SDS011;17400;52.392;9.750;2022-09-29T11:12:23;7.82;;;4.00;;
30635;SDS011;17400;52.392;9.750;2022-09-29T11:14:54;7.68;;;4.53;;
30635;SDS011;17400;52.392;9.750;2022-09-29T11:17:23;6.20;;;3.72;;
30635;SDS011;17400;52.392;9.750;2022-09-29T11:19:53;8.38;;;3.35;;
30635;SDS011;17400;52.392;9.750;2022-09-29T11:31:41;6.47;;;3.38;;
30635;SDS011;17400;52.392;9.750;2022-09-29T11:37:39;4.35;;;1.98;;
30635;SDS011;17400;52.392;9.750;2022-09-29T11:40:23;3.65;;;2.03;;
30635;SDS011;17400;52.392;9.750;2022-09-29T11:43:05;5.00;;;2.00;;
30635;SDS011;17400;52.392;9.750;2022-09-29T11:45:47;8.45;;;3.30;;
30635;SDS011;17400;52.392;9.750;2022-09-29T11:48:44;6.05;;;3.67;;
30635;SDS011;17400;52.392;9.750;2022-09-29T11:51:35;7.22;;;3.35;;
30635;SDS011;17400;52.392;9.750;2022-09-29T11:54:26;6.57;;;4.22;;
30635;SDS011;17400;52.392;9.750;2022-09-29T11:57:07;7.25;;;3.72;;
30635;SDS011;17400;52.392;9.750;2022-09-29T11:59:48;7.28;;;3.33;;
30635;SDS011;17400;52.392;9.750;2022-09-29T12:05:51;6.75;;;3.55;;
30635;SDS011;17400;52.392;9.750;2022-09-29T12:08:53;4.97;;;3.00;;
30635;SDS011;17400;52.392;9.750;2022-09-29T12:11:31;4.63;;;2.60;;
30635;SDS011;17400;52.392;9.750;2022-09-29T12:14:29;4.72;;;2.63;;
30635;SDS011;17400;52.392;9.750;2022-09-29T12:17:08;4.95;;;2.83;;
30635;SDS011;17400;52.392;9.750;2022-09-29T12:19:40;4.63;;;2.58;;
30635;SDS011;17400;52.392;9.750;2022-09-29T12:22:14;5.20;;;3.35;;
30635;SDS011;17400;52.392;9.750;2022-09-29T12:24:45;5.30;;;2.70;;
30635;SDS011;17400;52.392;9.750;2022-09-29T12:27:18;7.38;;;3.40;;
30635;SDS011;17400;52.392;9.750;2022-09-29T12:29:52;3.75;;;2.72;;
30635;SDS011;17400;52.392;9.750;2022-09-29T12:32:25;5.70;;;2.42;;
30635;SDS011;17400;52.392;9.750;2022-09-29T12:34:58;3.40;;;2.45;;
30635;SDS011;17400;52.392;9.750;2022-09-29T12:37:35;6.28;;;2.70;;
30635;SDS011;17400;52.392;9.750;2022-09-29T12:40:11;4.10;;;2.50;;
30635;SDS011;17400;52.392;9.750;2022-09-29T12:42:49;5.22;;;3.35;;
30635;SDS011;17400;52.392;9.750;2022-09-29T12:45:25;5.00;;;3.25;;
30635;SDS011;17400;52.392;9.750;2022-09-29T12:48:04;3.63;;;2.38;;
30635;SDS011;17400;52.392;9.750;2022-09-29T12:50:41;5.60;;;2.97;;
30635;SDS011;17400;52.392;9.750;2022-09-29T12:53:16;4.38;;;2.35;;
30635;SDS011;17400;52.392;9.750;2022-09-29T12:55:52;3.47;;;2.13;;
30635;SDS011;17400;52.392;9.750;2022-09-29T12:58:27;4.28;;;2.83;;
30635;SDS011;17400;52.392;9.750;2022-09-29T13:01:18;2.83;;;1.92;;
30635;SDS011;17400;52.392;9.750;2022-09-29T13:03:52;4.45;;;2.60;;
30635;SDS011;17400;52.392;9.750;2022-09-29T13:06:44;4.82;;;2.92;;
30635;SDS011;17400;52.392;9.750;2022-09-29T13:09:34;4.10;;;2.70;;
30635;SDS011;17400;52.392;9.750;2022-09-29T13:15:21;4.05;;;2.45;;
30635;SDS011;17400;52.392;9.750;2022-09-29T13:18:04;2.55;;;1.80;;
30635;SDS011;17400;52.392;9.750;2022-09-29T13:20:55;3.88;;;2.22;;
30635;SDS011;17400;52.392;9.750;2022-09-29T13:23:36;3.90;;;2.28;;
30635;SDS011;17400;52.392;9.750;2022-09-29T13:29:16;5.57;;;2.72;;
30635;SDS011;17400;52.392;9.750;2022-09-29T13:31:48;3.80;;;1.60;;
30635;SDS011;17400;52.392;9.750;2022-09-29T13:34:18;3.95;;;2.38;;
30635;SDS011;17400;52.392;9.750;2022-09-29T13:36:59;3.67;;;1.60;;
30635;SDS011;17400;52.392;9.750;2022-09-29T13:39:32;3.05;;;1.90;;
30635;SDS011;17400;52.392;9.750;2022-09-29T13:45:14;2.28;;;1.75;;
30635;SDS011;17400;52.392;9.750;2022-09-29T13:51:21;4.38;;;2.15;;
30635;SDS011;17400;52.392;9.750;2022-09-29T13:54:21;3.63;;;2.22;;
30635;SDS011;17400;52.392;9.750;2022-09-29T14:02:46;3.05;;;1.95;;
30635;SDS011;17400;52.392;9.750;2022-09-29T14:05:36;3.47;;;1.98;;
30635;SDS011;17400;52.392;9.750;2022-09-29T14:08:11;2.67;;;1.60;;
30635;SDS011;17400;52.392;9.750;2022-09-29T14:10:42;3.67;;;1.90;;
30635;SDS011;17400;52.392;9.750;2022-09-29T14:13:16;3.70;;;1.80;;
30635;SDS011;17400;52.392;9.750;2022-09-29T14:16:00;3.22;;;1.90;;
30635;SDS011;17400;52.392;9.750;2022-09-29T14:18:42;4.22;;;2.95;;
30635;SDS011;17400;52.392;9.750;2022-09-29T14:21:21;4.32;;;2.80;;
30635;SDS011;17400;52.392;9.750;2022-09-29T14:27:18;4.82;;;3.05;;
30635;SDS011;17400;52.392;9.750;2022-09-29T14:29:52;3.85;;;2.78;;
30635;SDS011;17400;52.392;9.750;2022-09-29T14:32:31;4.65;;;3.10;;
30635;SDS011;17400;52.392;9.750;2022-09-29T14:35:14;4.55;;;2.75;;
30635;SDS011;17400;52.392;9.750;2022-09-29T14:37:54;4.85;;;3.10;;
30635;SDS011;17400;52.392;9.750;2022-09-29T14:40:27;3.97;;;2.53;;
30635;SDS011;17400;52.392;9.750;2022-09-29T14:43:07;3.55;;;2.63;;
30635;SDS011;17400;52.392;9.750;2022-09-29T14:49:05;3.53;;;2.05;;
30635;SDS011;17400;52.392;9.750;2022-09-29T14:52:13;4.30;;;2.50;;
30635;SDS011;17400;52.392;9.750;2022-09-29T14:54:54;3.30;;;2.22;;
30635;SDS011;17400;52.392;9.750;2022-09-29T14:57:36;5.40;;;2.35;;
30635;SDS011;17400;52.392;9.750;2022-09-29T15:00:19;4.45;;;2.17;;
30635;SDS011;17400;52.392;9.750;2022-09-29T15:02:50;4.63;;;2.35;;
30635;SDS011;17400;52.392;9.750;2022-09-29T15:05:32;6.90;;;2.70;;
30635;SDS011;17400;52.392;9.750;2022-09-29T15:08:02;3.47;;;1.80;;
30635;SDS011;17400;52.392;9.750;2022-09-29T15:10:48;2.95;;;1.88;;
30635;SDS011;17400;52.392;9.750;2022-09-29T15:13:18;3.28;;;1.80;;
30635;SDS011;17400;52.392;9.750;2022-09-29T15:15:50;5.15;;;2.22;;
30635;SDS011;17400;52.392;9.750;2022-09-29T15:18:28;3.15;;;2.08;;
30635;SDS011;17400;52.392;9.750;2022-09-29T15:21:09;4.13;;;2.17;;
30635;SDS011;17400;52.392;9.750;2022-09-29T15:23:51;2.08;;;1.17;;
30635;SDS011;17400;52.392;9.750;2022-09-29T15:26:48;1.80;;;0.95;;
30635;SDS011;17400;52.392;9.750;2022-09-29T15:29:16;2.03;;;1.20;;
30635;SDS011;17400;52.392;9.750;2022-09-29T15:31:46;1.60;;;0.95;;
30635;SDS011;17400;52.392;9.750;2022-09-29T15:34:16;1.73;;;0.95;;
30635;SDS011;17400;52.392;9.750;2022-09-29T15:36:49;1.80;;;0.90;;
30635;SDS011;17400;52.392;9.750;2022-09-29T15:39:38;4.20;;;1.42;;
30635;SDS011;17400;52.392;9.750;2022-09-29T15:42:11;2.03;;;1.27;;
30635;SDS011;17400;52.392;9.750;2022-09-29T15:44:45;2.40;;;1.02;;
30635;SDS011;17400;52.392;9.750;2022-09-29T15:47:21;0.82;;;0.60;;
30635;SDS011;17400;52.392;9.750;2022-09-29T15:49:53;1.95;;;1.15;;
30635;SDS011;17400;52.392;9.750;2022-09-29T15:52:22;2.40;;;1.33;;
30635;SDS011;17400;52.392;9.750;2022-09-29T15:54:54;2.90;;;1.25;;
30635;SDS011;17400;52.392;9.750;2022-09-29T15:57:27;4.05;;;1.20;;
30635;SDS011;17400;52.392;9.750;2022-09-29T16:03:11;2.42;;;1.17;;
30635;SDS011;17400;52.392;9.750;2022-09-29T16:05:44;2.13;;;1.13;;
30635;SDS011;17400;52.392;9.750;2022-09-29T16:08:25;2.42;;;1.20;;